sensor_id;sensor_type;location;lat;lon;timestamp;pressure;altitude;pressure_sealevel;temperature;humidity
52745;BME280;38637;49.984;20.426;2024-02-21T00:00:46;99944.81;;;6.02;100.00
52745;BME280;38637;49.984;20.426;2024-02-21T00:03:12;99937.94;;;5.99;99.98
52745;BME280;38637;49.984;20.426;2024-02-21T00:05:37;99990.38;;;6.18;99.42
52745;BME280;38637;49.984;20.426;2024-02-21T00:08:03;99949.47;;;5.94;100.00
52745;BME280;38637;49.984;20.426;2024-02-21T00:10:28;99983.97;;;6.12;100.00
52745;BME280;38637;49.984;20.426;2024-02-21T00:12:54;99964.84;;;6.01;100.00
52745;BME280;38637;49.984;20.426;2024-02-21T00:15:19;99969.88;;;5.90;99.95
52745;BME280;38637;49.984;20.426;2024-02-21T00:17:45;99995.84;;;6.11;99.93
52745;BME280;38637;49.984;20.426;2024-02-21T00:20:10;99958.44;;;5.88;100.00
52745;BME280;38637;49.984;20.426;2024-02-21T00:22:36;99978.84;;;5.97;99.85
52745;BME280;38637;49.984;20.426;2024-02-21T00:25:01;99996.69;;;6.12;100.00
52745;BME280;38637;49.984;20.426;2024-02-21T00:27:27;99977.16;;;5.96;99.62
52745;BME280;38637;49.984;20.426;2024-02-21T00:29:52;99960.06;;;5.89;99.36
52745;BME280;38637;49.984;20.426;2024-02-21T00:32:18;99985.06;;;6.05;99.85
52745;BME280;38637;49.984;20.426;2024-02-21T00:34:43;99994.84;;;6.06;99.26
52745;BME280;38637;49.984;20.426;2024-02-21T00:37:09;99939.25;;;5.83;99.17
52745;BME280;38637;49.984;20.426;2024-02-21T00:39:34;99980.25;;;6.07;98.55
52745;BME280;38637;49.984;20.426;2024-02-21T00:41:59;99973.38;;;6.04;98.16
52745;BME280;38637;49.984;20.426;2024-02-21T00:44:25;99954.88;;;5.94;97.94
52745;BME280;38637;49.984;20.426;2024-02-21T00:46:50;99979.00;;;6.09;97.75
52745;BME280;38637;49.984;20.426;2024-02-21T00:49:16;99985.06;;;6.05;97.41
52745;BME280;38637;49.984;20.426;2024-02-21T00:51:41;99981.72;;;6.03;97.78
52745;BME280;38637;49.984;20.426;2024-02-21T00:54:06;99961.56;;;5.85;97.79
52745;BME280;38637;49.984;20.426;2024-02-21T00:56:31;99978.84;;;5.97;97.54
52745;BME280;38637;49.984;20.426;2024-02-21T00:58:57;99976.72;;;5.99;97.57
52745;BME280;38637;49.984;20.426;2024-02-21T01:01:23;99980.94;;;5.95;97.64
52745;BME280;38637;49.984;20.426;2024-02-21T01:03:50;99959.25;;;5.89;97.32
52745;BME280;38637;49.984;20.426;2024-02-21T01:06:16;99926.00;;;5.68;97.06
52745;BME280;38637;49.984;20.426;2024-02-21T01:08:41;99956.16;;;5.85;97.48
52745;BME280;38637;49.984;20.426;2024-02-21T01:11:07;99967.19;;;5.97;97.31
52745;BME280;38637;49.984;20.426;2024-02-21T01:13:32;99962.16;;;6.01;97.41
52745;BME280;38637;49.984;20.426;2024-02-21T01:15:58;99927.16;;;5.86;96.98
52745;BME280;38637;49.984;20.426;2024-02-21T01:18:23;99929.63;;;5.87;96.68
52745;BME280;38637;49.984;20.426;2024-02-21T01:20:48;99968.75;;;6.11;96.14
52745;BME280;38637;49.984;20.426;2024-02-21T01:23:13;99947.09;;;6.05;95.83
52745;BME280;38637;49.984;20.426;2024-02-21T01:25:39;99958.53;;;6.13;95.01
52745;BME280;38637;49.984;20.426;2024-02-21T01:28:04;99966.84;;;6.18;94.93
52745;BME280;38637;49.984;20.426;2024-02-21T01:30:30;99928.59;;;5.95;94.45
52745;BME280;38637;49.984;20.426;2024-02-21T01:32:55;99944.63;;;6.03;93.47
52745;BME280;38637;49.984;20.426;2024-02-21T01:35:20;99919.22;;;5.84;93.74
52745;BME280;38637;49.984;20.426;2024-02-21T01:37:45;99968.53;;;6.13;93.48
52745;BME280;38637;49.984;20.426;2024-02-21T01:40:11;99967.72;;;6.12;93.47
52745;BME280;38637;49.984;20.426;2024-02-21T01:42:40;99961.84;;;6.15;93.33
52745;BME280;38637;49.984;20.426;2024-02-21T01:45:08;99959.16;;;6.15;92.68
52745;BME280;38637;49.984;20.426;2024-02-21T01:47:34;99956.44;;;6.15;92.80
52745;BME280;38637;49.984;20.426;2024-02-21T01:50:00;99953.72;;;6.15;92.06
52745;BME280;38637;49.984;20.426;2024-02-21T01:52:28;99918.81;;;5.94;91.92
52745;BME280;38637;49.984;20.426;2024-02-21T01:54:53;99924.19;;;6.01;92.03
52745;BME280;38637;49.984;20.426;2024-02-21T01:57:19;99942.25;;;6.13;91.99
52745;BME280;38637;49.984;20.426;2024-02-21T01:59:44;99899.22;;;5.85;91.42
52745;BME280;38637;49.984;20.426;2024-02-21T02:02:09;99944.13;;;6.13;91.47
52745;BME280;38637;49.984;20.426;2024-02-21T02:04:37;99947.44;;;6.15;91.30
52745;BME280;38637;49.984;20.426;2024-02-21T02:07:02;99946.47;;;6.09;91.05
52745;BME280;38637;49.984;20.426;2024-02-21T02:09:30;99946.72;;;6.01;91.25
52745;BME280;38637;49.984;20.426;2024-02-21T02:11:55;99934.22;;;5.87;91.89
52745;BME280;38637;49.984;20.426;2024-02-21T02:14:23;99953.19;;;5.93;91.32
52745;BME280;38637;49.984;20.426;2024-02-21T02:16:48;99935.28;;;5.86;91.98
52745;BME280;38637;49.984;20.426;2024-02-21T02:19:14;99910.13;;;5.72;92.12
52745;BME280;38637;49.984;20.426;2024-02-21T02:21:43;99944.88;;;5.88;92.37
52745;BME280;38637;49.984;20.426;2024-02-21T02:24:11;99913.28;;;5.69;92.86
52745;BME280;38637;49.984;20.426;2024-02-21T02:26:37;99900.38;;;5.64;93.41
52745;BME280;38637;49.984;20.426;2024-02-21T02:29:02;99927.22;;;5.79;93.79
52745;BME280;38637;49.984;20.426;2024-02-21T02:31:27;99877.50;;;5.53;93.90
52745;BME280;38637;49.984;20.426;2024-02-21T02:33:53;99887.91;;;5.63;93.99
52745;BME280;38637;49.984;20.426;2024-02-21T02:36:18;99910.13;;;5.79;94.06
52745;BME280;38637;49.984;20.426;2024-02-21T02:38:43;99899.09;;;5.73;94.29
52745;BME280;38637;49.984;20.426;2024-02-21T02:41:09;99930.50;;;5.88;94.34
52745;BME280;38637;49.984;20.426;2024-02-21T02:43:34;99923.19;;;5.88;94.61
52745;BME280;38637;49.984;20.426;2024-02-21T02:45:59;99914.00;;;5.89;94.64
52745;BME280;38637;49.984;20.426;2024-02-21T02:48:25;99900.69;;;5.81;94.87
52745;BME280;38637;49.984;20.426;2024-02-21T02:50:50;99920.66;;;5.93;94.95
52745;BME280;38637;49.984;20.426;2024-02-21T02:53:15;99879.34;;;5.60;95.38
52745;BME280;38637;49.984;20.426;2024-02-21T02:55:41;99909.00;;;5.86;95.41
52745;BME280;38637;49.984;20.426;2024-02-21T02:58:06;99906.53;;;5.85;95.37
52745;BME280;38637;49.984;20.426;2024-02-21T03:00:31;99907.53;;;5.97;95.74
52745;BME280;38637;49.984;20.426;2024-02-21T03:03:01;99916.06;;;6.01;95.06
52745;BME280;38637;49.984;20.426;2024-02-21T03:05:27;99885.28;;;5.82;95.00
52745;BME280;38637;49.984;20.426;2024-02-21T03:07:52;99881.53;;;5.83;95.29
52745;BME280;38637;49.984;20.426;2024-02-21T03:10:18;99913.34;;;6.01;95.08
52745;BME280;38637;49.984;20.426;2024-02-21T03:12:43;99921.03;;;6.04;94.97
52745;BME280;38637;49.984;20.426;2024-02-21T03:15:09;99892.56;;;5.88;94.96
52745;BME280;38637;49.984;20.426;2024-02-21T03:17:34;99907.50;;;6.04;94.90
52745;BME280;38637;49.984;20.426;2024-02-21T03:20:01;99905.59;;;6.04;94.95
52745;BME280;38637;49.984;20.426;2024-02-21T03:22:26;99905.38;;;6.06;94.53
52745;BME280;38637;49.984;20.426;2024-02-21T03:24:52;99897.91;;;6.01;94.80
52745;BME280;38637;49.984;20.426;2024-02-21T03:27:17;99886.69;;;5.97;94.72
52745;BME280;38637;49.984;20.426;2024-02-21T03:29:43;99898.53;;;6.03;94.92
52745;BME280;38637;49.984;20.426;2024-02-21T03:32:08;99887.50;;;5.98;94.39
52745;BME280;38637;49.984;20.426;2024-02-21T03:34:34;99879.63;;;5.83;94.47
52745;BME280;38637;49.984;20.426;2024-02-21T03:36:59;99895.63;;;5.98;94.51
52745;BME280;38637;49.984;20.426;2024-02-21T03:39:25;99906.22;;;6.06;94.28
52745;BME280;38637;49.984;20.426;2024-02-21T03:41:50;99893.75;;;5.98;94.39
52745;BME280;38637;49.984;20.426;2024-02-21T03:44:16;99908.50;;;6.09;94.47
52745;BME280;38637;49.984;20.426;2024-02-21T03:46:41;99889.78;;;6.01;94.31
52745;BME280;38637;49.984;20.426;2024-02-21T03:49:07;99900.13;;;6.11;94.15
52745;BME280;38637;49.984;20.426;2024-02-21T03:51:32;99896.16;;;6.13;93.95
52745;BME280;38637;49.984;20.426;2024-02-21T03:53:57;99867.50;;;5.92;93.28
52745;BME280;38637;49.984;20.426;2024-02-21T03:56:23;99840.94;;;5.76;93.19
52745;BME280;38637;49.984;20.426;2024-02-21T03:58:48;99901.19;;;6.10;93.13
52745;BME280;38637;49.984;20.426;2024-02-21T04:01:15;99876.06;;;5.89;92.84
52745;BME280;38637;49.984;20.426;2024-02-21T04:03:40;99905.38;;;6.06;92.87
52745;BME280;38637;49.984;20.426;2024-02-21T04:06:06;99905.22;;;6.01;93.00
52745;BME280;38637;49.984;20.426;2024-02-21T04:08:31;99855.13;;;5.71;92.86
52745;BME280;38637;49.984;20.426;2024-02-21T04:10:56;99895.59;;;6.05;92.64
52745;BME280;38637;49.984;20.426;2024-02-21T04:13:21;99894.53;;;6.06;92.38
52745;BME280;38637;49.984;20.426;2024-02-21T04:15:48;99875.84;;;5.91;92.28
52745;BME280;38637;49.984;20.426;2024-02-21T04:18:13;99898.28;;;6.05;92.71
52745;BME280;38637;49.984;20.426;2024-02-21T04:20:40;99891.44;;;6.02;92.19
52745;BME280;38637;49.984;20.426;2024-02-21T04:23:05;99862.31;;;5.91;92.25
52745;BME280;38637;49.984;20.426;2024-02-21T04:25:30;99882.22;;;6.10;91.60
52745;BME280;38637;49.984;20.426;2024-02-21T04:27:55;99851.22;;;5.92;92.13
52745;BME280;38637;49.984;20.426;2024-02-21T04:30:21;99841.50;;;5.85;91.57
52745;BME280;38637;49.984;20.426;2024-02-21T04:32:46;99877.81;;;6.09;91.21
52745;BME280;38637;49.984;20.426;2024-02-21T04:35:11;99875.72;;;6.11;90.89
52745;BME280;38637;49.984;20.426;2024-02-21T04:37:36;99866.97;;;6.09;91.10
52745;BME280;38637;49.984;20.426;2024-02-21T04:40:02;99852.69;;;5.95;90.63
52745;BME280;38637;49.984;20.426;2024-02-21T04:42:27;99857.50;;;5.93;90.13
52745;BME280;38637;49.984;20.426;2024-02-21T04:44:52;99863.75;;;5.93;90.12
52745;BME280;38637;49.984;20.426;2024-02-21T04:47:18;99845.28;;;5.77;90.45
52745;BME280;38637;49.984;20.426;2024-02-21T04:49:45;99855.81;;;5.92;90.28
52745;BME280;38637;49.984;20.426;2024-02-21T04:52:11;99825.09;;;5.73;90.57
52745;BME280;38637;49.984;20.426;2024-02-21T04:54:36;99795.66;;;5.51;89.66
52745;BME280;38637;49.984;20.426;2024-02-21T04:57:01;99840.31;;;5.74;89.47
52745;BME280;38637;49.984;20.426;2024-02-21T04:59:26;99836.38;;;5.70;89.83
52745;BME280;38637;49.984;20.426;2024-02-21T05:01:52;99880.41;;;5.90;90.08
52745;BME280;38637;49.984;20.426;2024-02-21T05:04:17;99880.84;;;5.87;90.23
52745;BME280;38637;49.984;20.426;2024-02-21T05:06:43;99844.56;;;5.63;90.76
52745;BME280;38637;49.984;20.426;2024-02-21T05:09:09;99847.66;;;5.67;90.74
52745;BME280;38637;49.984;20.426;2024-02-21T05:11:35;99861.09;;;5.80;90.66
52745;BME280;38637;49.984;20.426;2024-02-21T05:14:00;99851.38;;;5.66;90.41
52745;BME280;38637;49.984;20.426;2024-02-21T05:16:26;99870.28;;;5.79;90.69
52745;BME280;38637;49.984;20.426;2024-02-21T05:18:51;99867.16;;;5.82;90.49
52745;BME280;38637;49.984;20.426;2024-02-21T05:21:17;99841.78;;;5.70;90.58
52745;BME280;38637;49.984;20.426;2024-02-21T05:23:42;99861.50;;;5.84;90.47
52745;BME280;38637;49.984;20.426;2024-02-21T05:26:07;99863.44;;;5.76;90.75
52745;BME280;38637;49.984;20.426;2024-02-21T05:28:33;99873.22;;;5.78;90.80
52745;BME280;38637;49.984;20.426;2024-02-21T05:30:58;99883.06;;;5.65;91.68
52745;BME280;38637;49.984;20.426;2024-02-21T05:33:24;99861.72;;;5.44;92.34
52745;BME280;38637;49.984;20.426;2024-02-21T05:35:50;99899.19;;;5.53;92.56
52745;BME280;38637;49.984;20.426;2024-02-21T05:38:16;99903.81;;;5.46;93.54
52745;BME280;38637;49.984;20.426;2024-02-21T05:40:41;99892.97;;;5.46;93.21
52745;BME280;38637;49.984;20.426;2024-02-21T05:43:07;99858.84;;;5.32;93.79
52745;BME280;38637;49.984;20.426;2024-02-21T05:45:33;99885.44;;;5.55;93.51
52745;BME280;38637;49.984;20.426;2024-02-21T05:47:58;99851.75;;;5.38;93.39
52745;BME280;38637;49.984;20.426;2024-02-21T05:50:24;99882.06;;;5.60;93.08
52745;BME280;38637;49.984;20.426;2024-02-21T05:52:54;99867.25;;;5.62;92.80
52745;BME280;38637;49.984;20.426;2024-02-21T05:55:20;99847.28;;;5.57;92.10
52745;BME280;38637;49.984;20.426;2024-02-21T05:57:46;99851.44;;;5.59;92.34
52745;BME280;38637;49.984;20.426;2024-02-21T06:00:11;99855.13;;;5.71;92.52
52745;BME280;38637;49.984;20.426;2024-02-21T06:02:37;99853.03;;;5.73;92.41
52745;BME280;38637;49.984;20.426;2024-02-21T06:05:02;99832.03;;;5.62;92.17
52745;BME280;38637;49.984;20.426;2024-02-21T06:07:27;99821.59;;;5.66;92.09
52745;BME280;38637;49.984;20.426;2024-02-21T06:09:53;99841.50;;;5.78;91.95
52745;BME280;38637;49.984;20.426;2024-02-21T06:12:18;99863.31;;;5.96;91.52
52745;BME280;38637;49.984;20.426;2024-02-21T06:14:43;99847.47;;;5.93;91.24
52745;BME280;38637;49.984;20.426;2024-02-21T06:17:09;99822.34;;;5.80;91.26
52745;BME280;38637;49.984;20.426;2024-02-21T06:19:35;99867.22;;;6.07;90.48
52745;BME280;38637;49.984;20.426;2024-02-21T06:22:00;99861.56;;;6.09;90.39
52745;BME280;38637;49.984;20.426;2024-02-21T06:24:25;99842.69;;;5.95;90.73
52745;BME280;38637;49.984;20.426;2024-02-21T06:26:50;99840.38;;;5.92;90.12
52745;BME280;38637;49.984;20.426;2024-02-21T06:29:16;99860.72;;;6.08;90.17
52745;BME280;38637;49.984;20.426;2024-02-21T06:31:41;99877.13;;;6.20;90.22
52745;BME280;38637;49.984;20.426;2024-02-21T06:34:06;99834.94;;;5.99;90.12
52745;BME280;38637;49.984;20.426;2024-02-21T06:36:32;99771.44;;;5.57;89.09
52745;BME280;38637;49.984;20.426;2024-02-21T06:38:58;99839.09;;;6.02;89.42
52745;BME280;38637;49.984;20.426;2024-02-21T06:41:24;99875.41;;;6.26;89.69
52745;BME280;38637;49.984;20.426;2024-02-21T06:43:50;99816.66;;;5.94;89.34
52745;BME280;38637;49.984;20.426;2024-02-21T06:46:26;99852.09;;;6.18;89.71
52745;BME280;38637;49.984;20.426;2024-02-21T06:48:51;99838.97;;;6.15;89.43
52745;BME280;38637;49.984;20.426;2024-02-21T06:51:16;99862.22;;;6.29;89.70
52745;BME280;38637;49.984;20.426;2024-02-21T06:53:42;99815.31;;;6.04;89.60
52745;BME280;38637;49.984;20.426;2024-02-21T06:56:09;99858.47;;;6.30;89.58
52745;BME280;38637;49.984;20.426;2024-02-21T06:58:34;99851.00;;;6.26;89.48
52745;BME280;38637;49.984;20.426;2024-02-21T07:00:59;99843.94;;;6.25;89.25
52745;BME280;38637;49.984;20.426;2024-02-21T07:03:25;99858.47;;;6.30;88.64
52745;BME280;38637;49.984;20.426;2024-02-21T07:05:50;99860.28;;;6.36;88.74
52745;BME280;38637;49.984;20.426;2024-02-21T07:08:15;99859.84;;;6.39;88.57
52745;BME280;38637;49.984;20.426;2024-02-21T07:10:40;99836.69;;;6.18;88.53
52745;BME280;38637;49.984;20.426;2024-02-21T07:13:06;99829.13;;;6.20;87.97
52745;BME280;38637;49.984;20.426;2024-02-21T07:15:31;99834.72;;;6.26;88.57
52745;BME280;38637;49.984;20.426;2024-02-21T07:17:58;99847.34;;;6.38;88.60
52745;BME280;38637;49.984;20.426;2024-02-21T07:20:23;99846.28;;;6.39;88.34
52745;BME280;38637;49.984;20.426;2024-02-21T07:22:48;99853.38;;;6.40;87.60
52745;BME280;38637;49.984;20.426;2024-02-21T07:25:14;99792.31;;;6.13;87.85
52745;BME280;38637;49.984;20.426;2024-02-21T07:27:39;99798.03;;;6.23;87.84
52745;BME280;38637;49.984;20.426;2024-02-21T07:30:05;99846.28;;;6.64;87.18
52745;BME280;38637;49.984;20.426;2024-02-21T07:32:31;99837.28;;;6.64;87.35
52745;BME280;38637;49.984;20.426;2024-02-21T07:34:56;99837.06;;;6.65;86.61
52745;BME280;38637;49.984;20.426;2024-02-21T07:37:21;99818.69;;;6.67;86.45
52745;BME280;38637;49.984;20.426;2024-02-21T07:39:47;99846.66;;;6.86;86.16
52745;BME280;38637;49.984;20.426;2024-02-21T07:42:12;99834.28;;;6.90;85.46
52745;BME280;38637;49.984;20.426;2024-02-21T07:44:37;99841.53;;;6.97;85.17
52745;BME280;38637;49.984;20.426;2024-02-21T07:47:03;99797.47;;;6.76;85.81
52745;BME280;38637;49.984;20.426;2024-02-21T07:49:28;99828.47;;;7.05;84.76
52745;BME280;38637;49.984;20.426;2024-02-21T07:51:53;99780.97;;;6.78;85.23
52745;BME280;38637;49.984;20.426;2024-02-21T07:54:19;99783.63;;;6.84;84.53
52745;BME280;38637;49.984;20.426;2024-02-21T07:56:44;99832.09;;;7.18;83.02
52745;BME280;38637;49.984;20.426;2024-02-21T07:59:09;99829.59;;;7.16;82.80
52745;BME280;38637;49.984;20.426;2024-02-21T08:01:34;99814.97;;;7.17;82.80
52745;BME280;38637;49.984;20.426;2024-02-21T08:04:00;99803.88;;;7.19;82.37
52745;BME280;38637;49.984;20.426;2024-02-21T08:06:25;99810.09;;;7.37;81.66
52745;BME280;38637;49.984;20.426;2024-02-21T08:08:50;99814.13;;;7.47;80.04
52745;BME280;38637;49.984;20.426;2024-02-21T08:11:16;99819.03;;;7.56;80.86
52745;BME280;38637;49.984;20.426;2024-02-21T08:13:41;99814.94;;;7.66;79.62
52745;BME280;38637;49.984;20.426;2024-02-21T08:16:06;99796.50;;;7.68;77.84
52745;BME280;38637;49.984;20.426;2024-02-21T08:18:32;99810.72;;;7.81;78.17
52745;BME280;38637;49.984;20.426;2024-02-21T08:21:01;99813.13;;;7.90;77.06
52745;BME280;38637;49.984;20.426;2024-02-21T08:23:26;99765.41;;;7.64;76.63
52745;BME280;38637;49.984;20.426;2024-02-21T08:25:51;99793.94;;;7.85;77.81
52745;BME280;38637;49.984;20.426;2024-02-21T08:28:17;99797.94;;;7.82;76.25
52745;BME280;38637;49.984;20.426;2024-02-21T08:30:42;99791.69;;;7.81;75.57
52745;BME280;38637;49.984;20.426;2024-02-21T08:33:12;99783.66;;;7.75;76.83
52745;BME280;38637;49.984;20.426;2024-02-21T08:35:38;99813.00;;;7.96;79.15
52745;BME280;38637;49.984;20.426;2024-02-21T08:38:03;99805.88;;;7.95;76.65
52745;BME280;38637;49.984;20.426;2024-02-21T08:40:28;99800.84;;;7.99;76.57
52745;BME280;38637;49.984;20.426;2024-02-21T08:42:53;99798.69;;;8.01;76.19
52745;BME280;38637;49.984;20.426;2024-02-21T08:45:19;99804.97;;;8.01;75.76
52745;BME280;38637;49.984;20.426;2024-02-21T08:47:44;99813.84;;;7.97;75.25
52745;BME280;38637;49.984;20.426;2024-02-21T08:50:10;99796.69;;;7.96;75.79
52745;BME280;38637;49.984;20.426;2024-02-21T08:52:36;99762.59;;;7.82;75.63
52745;BME280;38637;49.984;20.426;2024-02-21T08:55:01;99809.84;;;8.11;75.09
52745;BME280;38637;49.984;20.426;2024-02-21T08:57:27;99760.50;;;7.96;74.08
52745;BME280;38637;49.984;20.426;2024-02-21T08:59:52;99770.44;;;8.14;74.24
52745;BME280;38637;49.984;20.426;2024-02-21T09:02:17;99784.78;;;8.21;72.77
52745;BME280;38637;49.984;20.426;2024-02-21T09:04:43;99780.63;;;8.30;73.96
52745;BME280;38637;49.984;20.426;2024-02-21T09:07:11;99774.38;;;8.29;72.73
52745;BME280;38637;49.984;20.426;2024-02-21T09:09:37;99785.63;;;8.45;72.51
52745;BME280;38637;49.984;20.426;2024-02-21T09:12:05;99786.81;;;8.49;73.01
52745;BME280;38637;49.984;20.426;2024-02-21T09:14:33;99793.19;;;8.55;72.48
52745;BME280;38637;49.984;20.426;2024-02-21T09:16:59;99765.38;;;8.41;72.01
52745;BME280;38637;49.984;20.426;2024-02-21T09:19:24;99755.66;;;8.33;72.85
52745;BME280;38637;49.984;20.426;2024-02-21T09:21:49;99757.00;;;8.42;72.45
52745;BME280;38637;49.984;20.426;2024-02-21T09:24:15;99787.16;;;8.64;72.97
52745;BME280;38637;49.984;20.426;2024-02-21T09:26:40;99732.97;;;8.27;72.64
52745;BME280;38637;49.984;20.426;2024-02-21T09:29:05;99786.19;;;8.70;71.47
52745;BME280;38637;49.984;20.426;2024-02-21T09:31:31;99789.38;;;8.79;72.30
52745;BME280;38637;49.984;20.426;2024-02-21T09:33:57;99784.28;;;8.83;72.27
52745;BME280;38637;49.984;20.426;2024-02-21T09:36:22;99766.78;;;8.79;70.69
52745;BME280;38637;49.984;20.426;2024-02-21T09:38:47;99746.66;;;8.68;71.25
52745;BME280;38637;49.984;20.426;2024-02-21T09:41:17;99758.00;;;8.77;71.07
52745;BME280;38637;49.984;20.426;2024-02-21T09:43:43;99716.72;;;8.56;72.09
52745;BME280;38637;49.984;20.426;2024-02-21T09:46:24;99738.34;;;8.74;70.07
52745;BME280;38637;49.984;20.426;2024-02-21T09:49:38;99792.00;;;9.14;69.73
52745;BME280;38637;49.984;20.426;2024-02-21T09:51:45;99764.66;;;9.09;70.59
52745;BME280;38637;49.984;20.426;2024-02-21T09:54:13;99783.91;;;9.31;68.99
52745;BME280;38637;49.984;20.426;2024-02-21T09:56:38;99741.94;;;9.04;67.66
52745;BME280;38637;49.984;20.426;2024-02-21T09:59:03;99753.38;;;9.17;67.78
52745;BME280;38637;49.984;20.426;2024-02-21T10:01:30;99779.28;;;9.32;68.13
52745;BME280;38637;49.984;20.426;2024-02-21T10:03:57;99767.13;;;9.39;68.64
52745;BME280;38637;49.984;20.426;2024-02-21T10:06:22;99755.41;;;9.39;68.80
52745;BME280;38637;49.984;20.426;2024-02-21T10:08:53;99740.38;;;9.36;67.98
52745;BME280;38637;49.984;20.426;2024-02-21T10:11:25;99770.56;;;9.63;67.63
52745;BME280;38637;49.984;20.426;2024-02-21T10:13:51;99740.31;;;9.48;66.99
52745;BME280;38637;49.984;20.426;2024-02-21T10:16:16;99713.81;;;9.43;68.32
52745;BME280;38637;49.984;20.426;2024-02-21T10:18:41;99731.97;;;9.55;66.05
52745;BME280;38637;49.984;20.426;2024-02-21T10:21:07;99763.41;;;9.74;66.03
52745;BME280;38637;49.984;20.426;2024-02-21T10:23:46;99752.34;;;9.81;66.98
52745;BME280;38637;49.984;20.426;2024-02-21T10:26:12;99682.16;;;9.42;66.83
52745;BME280;38637;49.984;20.426;2024-02-21T10:28:38;99747.03;;;9.91;66.74
52745;BME280;38637;49.984;20.426;2024-02-21T10:31:11;99736.81;;;9.98;65.94
52745;BME280;38637;49.984;20.426;2024-02-21T10:34:02;99739.28;;;10.17;65.92
52745;BME280;38637;49.984;20.426;2024-02-21T10:36:28;99687.03;;;9.91;65.14
52745;BME280;38637;49.984;20.426;2024-02-21T10:38:53;99738.03;;;10.41;66.10
52745;BME280;38637;49.984;20.426;2024-02-21T10:41:20;99701.94;;;10.22;64.84
52745;BME280;38637;49.984;20.426;2024-02-21T10:43:53;99727.94;;;10.64;63.94
52745;BME280;38637;49.984;20.426;2024-02-21T10:46:21;99723.31;;;10.64;62.78
52745;BME280;38637;49.984;20.426;2024-02-21T10:48:47;99681.31;;;10.48;62.21
52745;BME280;38637;49.984;20.426;2024-02-21T10:51:16;99697.81;;;10.58;61.94
52745;BME280;38637;49.984;20.426;2024-02-21T10:56:31;99707.31;;;10.73;60.55
52745;BME280;38637;49.984;20.426;2024-02-21T10:59:01;99704.38;;;10.57;62.65
52745;BME280;38637;49.984;20.426;2024-02-21T11:01:28;99680.53;;;10.31;62.04
52745;BME280;38637;49.984;20.426;2024-02-21T11:03:55;99666.47;;;10.39;62.04
52745;BME280;38637;49.984;20.426;2024-02-21T11:06:22;99687.81;;;10.64;62.02
52745;BME280;38637;49.984;20.426;2024-02-21T11:09:08;99638.59;;;10.59;61.84
52745;BME280;38637;49.984;20.426;2024-02-21T11:11:43;99675.31;;;10.95;62.54
52745;BME280;38637;49.984;20.426;2024-02-21T11:16:41;99663.34;;;11.23;59.09
52745;BME280;38637;49.984;20.426;2024-02-21T11:19:08;99651.59;;;11.28;62.10
52745;BME280;38637;49.984;20.426;2024-02-21T11:21:35;99652.34;;;11.50;60.17
52745;BME280;38637;49.984;20.426;2024-02-21T11:24:02;99655.97;;;11.88;58.09
52745;BME280;38637;49.984;20.426;2024-02-21T11:26:28;99650.91;;;12.12;57.13
52745;BME280;38637;49.984;20.426;2024-02-21T11:29:01;99650.44;;;12.26;55.45
52745;BME280;38637;49.984;20.426;2024-02-21T11:31:41;99651.84;;;12.38;55.38
52745;BME280;38637;49.984;20.426;2024-02-21T11:34:10;99649.97;;;12.44;53.85
52745;BME280;38637;49.984;20.426;2024-02-21T11:36:36;99650.19;;;12.32;54.58
52745;BME280;38637;49.984;20.426;2024-02-21T11:39:05;99623.84;;;12.21;55.50
52745;BME280;38637;49.984;20.426;2024-02-21T11:41:31;99638.16;;;12.38;55.59
52745;BME280;38637;49.984;20.426;2024-02-21T11:43:56;99624.00;;;12.57;56.75
52745;BME280;38637;49.984;20.426;2024-02-21T11:46:21;99641.06;;;12.74;56.19
52745;BME280;38637;49.984;20.426;2024-02-21T11:48:47;99638.91;;;12.97;55.77
52745;BME280;38637;49.984;20.426;2024-02-21T11:51:24;99581.63;;;13.05;55.18
52745;BME280;38637;49.984;20.426;2024-02-21T11:53:51;99635.44;;;13.42;52.88
52745;BME280;38637;49.984;20.426;2024-02-21T11:56:16;99614.59;;;13.51;52.18
52745;BME280;38637;49.984;20.426;2024-02-21T11:58:41;99623.38;;;13.48;52.46
52745;BME280;38637;49.984;20.426;2024-02-21T12:01:08;99624.13;;;13.08;51.54
52745;BME280;38637;49.984;20.426;2024-02-21T12:03:33;99616.97;;;12.92;53.13
52745;BME280;38637;49.984;20.426;2024-02-21T12:06:01;99627.31;;;12.69;52.94
52745;BME280;38637;49.984;20.426;2024-02-21T12:08:28;99615.16;;;12.39;53.27
52745;BME280;38637;49.984;20.426;2024-02-21T12:11:18;99586.38;;;11.79;56.17
52745;BME280;38637;49.984;20.426;2024-02-21T12:13:44;99603.22;;;11.66;56.18
52745;BME280;38637;49.984;20.426;2024-02-21T12:16:10;99583.56;;;11.32;56.59
52745;BME280;38637;49.984;20.426;2024-02-21T12:18:36;99566.69;;;11.08;56.93
52745;BME280;38637;49.984;20.426;2024-02-21T12:21:01;99603.06;;;11.08;59.17
52745;BME280;38637;49.984;20.426;2024-02-21T12:23:27;99615.63;;;11.09;58.61
52745;BME280;38637;49.984;20.426;2024-02-21T12:25:52;99611.41;;;10.96;59.02
52745;BME280;38637;49.984;20.426;2024-02-21T12:28:20;99575.53;;;10.61;60.36
52745;BME280;38637;49.984;20.426;2024-02-21T12:30:47;99607.56;;;10.70;62.66
52745;BME280;38637;49.984;20.426;2024-02-21T12:33:13;99577.78;;;10.42;62.67
52745;BME280;38637;49.984;20.426;2024-02-21T12:35:39;99609.81;;;10.51;63.31
52745;BME280;38637;49.984;20.426;2024-02-21T12:38:05;99605.63;;;10.44;63.49
52745;BME280;38637;49.984;20.426;2024-02-21T12:40:30;99596.09;;;10.24;64.87
52745;BME280;38637;49.984;20.426;2024-02-21T12:42:59;99575.38;;;10.06;65.90
52745;BME280;38637;49.984;20.426;2024-02-21T12:45:25;99603.19;;;10.25;64.43
52745;BME280;38637;49.984;20.426;2024-02-21T12:47:51;99584.94;;;10.26;65.84
52745;BME280;38637;49.984;20.426;2024-02-21T12:50:16;99594.41;;;10.40;65.66
52745;BME280;38637;49.984;20.426;2024-02-21T12:52:41;99590.34;;;10.43;64.93
52745;BME280;38637;49.984;20.426;2024-02-21T12:55:07;99582.78;;;10.50;64.50
52745;BME280;38637;49.984;20.426;2024-02-21T12:57:35;99594.78;;;10.49;65.43